Skip Navigation LinksHome page > Weather > Current weather Skip Navigation Links

Current Weather

New Bedford Regional, New Bedford, Mass.

For information only: do not use for flight planning or navigation.
Latest weather
Observation time Saturday, December 5, 2020 2:53 AM EST
Local time Saturday, December 5, 2020 3:52 AM EST
Flight conditions Visual Meteorological Conditions
Winds
Wind speed calm
Visibility 10 mi.
Sky condition
Ceiling 7,000 ft. overcast
Cloud layer scattered clouds 5,500 ft.
Cloud layer overcast 7,000 ft.
Temperature 47°F
Dewpoint 45°F
Altimeter 29.88 in.Hg
Precipitation
Rain ended 2:29 AM
Precipitation last hour 0.01 in.
Derived measurements
Relative humidity 93%
Wind chill 47°F
Density altitude -531 ft.
Sea-level pressure 29.88 in.Hg
Remarks
Fully automated report.
Automated weather observing station with precipitation discriminator.
METAR KEWB 050753Z AUTO 00000KT 10SM SCT055 OVC070 08/07 A2988 RMK AO2 RAE29 SLP118 P0001 T00830072

Settings

Location code

InnerDrive.Weather 4.0.6770.0 Release CLR 4.0.30319.42000
Copyright ©2018 Inner Drive Technology. All rights reserved. Portions Copyright ©1986-2018 David Braverman.

Find weather

Site navigation


Skip Navigation Links

Place info

Page info

PayPal - The safer, easier way to pay online!

Return home.

Copyright ©2020 Inner Drive Technology. Purveyors of fine, hand-crafted computer software. Page printed 2020-12-05T08:52:20 UTC.